createdAt,value
2022-08-27T00:01:16.425Z,2.60
2022-08-27T00:03:44.647Z,2.63
2022-08-27T00:06:16.019Z,2.95
2022-08-27T00:08:44.728Z,3.03
2022-08-27T00:11:12.681Z,2.67
2022-08-27T00:13:40.684Z,2.30
2022-08-27T00:16:09.920Z,2.47
2022-08-27T00:18:37.479Z,2.70
2022-08-27T00:21:04.605Z,2.80
2022-08-27T00:23:34.508Z,2.58
2022-08-27T00:26:01.540Z,2.70
2022-08-27T00:28:29.021Z,2.55
2022-08-27T00:30:56.105Z,2.15
2022-08-27T00:33:23.411Z,2.20
2022-08-27T00:35:50.766Z,2.28
2022-08-27T00:38:18.530Z,2.83
2022-08-27T00:40:45.654Z,2.47
2022-08-27T00:43:12.484Z,2.10
2022-08-27T00:45:43.326Z,2.10
2022-08-27T00:48:15.169Z,2.15
2022-08-27T00:50:50.590Z,1.80
2022-08-27T00:53:22.613Z,1.80
2022-08-27T00:56:15.681Z,1.80
2022-08-27T00:58:45.415Z,2.20
2022-08-27T01:01:15.361Z,1.75
2022-08-27T01:03:47.136Z,1.70
2022-08-27T01:06:16.276Z,1.67
2022-08-27T01:08:50.994Z,1.80
2022-08-27T01:11:18.823Z,1.58
2022-08-27T01:13:59.726Z,1.40
2022-08-27T01:16:36.853Z,1.73
2022-08-27T01:19:07.486Z,1.50
2022-08-27T01:22:21.697Z,1.30
2022-08-27T01:24:51.758Z,1.00
2022-08-27T01:27:22.940Z,1.20
2022-08-27T01:29:49.431Z,1.50
2022-08-27T01:32:23.487Z,1.40
2022-08-27T01:34:50.143Z,1.38
2022-08-27T01:37:23.789Z,1.20
2022-08-27T01:39:51.588Z,1.50
2022-08-27T01:42:22.482Z,1.25
2022-08-27T01:44:55.699Z,1.45
2022-08-27T01:47:24.700Z,1.30
2022-08-27T01:49:58.657Z,1.40
2022-08-27T01:52:28.444Z,1.55
2022-08-27T01:54:54.962Z,1.20
2022-08-27T01:57:25.817Z,1.20
2022-08-27T01:59:52.917Z,1.13
2022-08-27T02:02:19.458Z,1.13
2022-08-27T02:04:46.054Z,1.15
2022-08-27T02:07:13.045Z,1.38
2022-08-27T02:09:39.517Z,1.02
2022-08-27T02:12:06.467Z,1.42
2022-08-27T02:14:32.995Z,1.45
2022-08-27T02:16:59.537Z,1.08
2022-08-27T02:19:27.436Z,1.20
2022-08-27T02:21:54.447Z,1.13
2022-08-27T02:24:20.923Z,1.20
2022-08-27T02:26:47.436Z,1.38
2022-08-27T02:29:13.880Z,1.40
2022-08-27T02:31:42.064Z,1.20
2022-08-27T02:34:09.780Z,1.30
2022-08-27T02:36:37.365Z,1.20
2022-08-27T02:39:07.738Z,1.17
2022-08-27T02:41:35.862Z,1.30
2022-08-27T02:44:04.657Z,1.33
2022-08-27T02:46:38.810Z,0.98
2022-08-27T02:49:06.354Z,1.15
2022-08-27T02:51:32.798Z,0.80
2022-08-27T02:54:00.983Z,1.30
2022-08-27T02:56:28.840Z,1.30
2022-08-27T02:58:55.429Z,1.20
2022-08-27T03:01:22.307Z,1.15
2022-08-27T03:03:48.790Z,1.40
2022-08-27T03:06:15.299Z,1.10
2022-08-27T03:08:52.099Z,1.10
2022-08-27T03:11:18.993Z,1.23
2022-08-27T03:13:45.483Z,1.30
2022-08-27T03:16:11.970Z,1.35
2022-08-27T03:18:38.409Z,1.25
2022-08-27T03:21:04.875Z,1.15
2022-08-27T03:23:35.005Z,1.23
2022-08-27T03:26:05.175Z,1.02
2022-08-27T03:28:35.452Z,1.30
2022-08-27T03:31:05.627Z,1.23
2022-08-27T03:33:37.858Z,1.20
2022-08-27T03:36:08.685Z,1.25
2022-08-27T03:38:36.266Z,1.17
2022-08-27T03:41:04.683Z,1.15
2022-08-27T03:43:31.941Z,1.10
2022-08-27T03:46:01.279Z,1.15
2022-08-27T03:48:30.765Z,1.27
2022-08-27T03:50:57.325Z,1.33
2022-08-27T03:53:23.843Z,1.17
2022-08-27T03:55:50.382Z,1.00
2022-08-27T03:58:17.949Z,1.15
2022-08-27T04:00:44.640Z,1.00
2022-08-27T04:03:14.422Z,0.75
2022-08-27T04:05:45.296Z,1.10
2022-08-27T04:08:12.986Z,1.58
2022-08-27T04:10:41.289Z,1.50
2022-08-27T04:13:07.800Z,1.10
2022-08-27T04:15:34.345Z,0.93
2022-08-27T04:18:07.219Z,1.00
2022-08-27T04:20:35.494Z,1.25
2022-08-27T04:23:02.375Z,1.17
2022-08-27T04:25:29.213Z,1.00
2022-08-27T04:27:55.704Z,1.20
2022-08-27T04:30:22.142Z,1.00
2022-08-27T04:32:48.652Z,1.17
2022-08-27T04:35:15.126Z,1.17
2022-08-27T04:37:41.547Z,0.95
2022-08-27T04:40:09.375Z,1.10
2022-08-27T04:42:35.941Z,1.20
2022-08-27T04:45:03.009Z,1.13
2022-08-27T04:47:29.626Z,1.40
2022-08-27T04:49:56.076Z,1.30
2022-08-27T04:52:23.708Z,1.27
2022-08-27T04:54:50.188Z,1.10
2022-08-27T04:57:17.064Z,1.20
2022-08-27T04:59:43.521Z,1.30
2022-08-27T05:02:10.858Z,1.40
2022-08-27T05:04:40.196Z,1.52
2022-08-27T05:07:08.697Z,1.40
2022-08-27T05:09:35.359Z,1.70
2022-08-27T05:12:02.228Z,1.17
2022-08-27T05:14:30.327Z,1.50
2022-08-27T05:16:58.129Z,1.25
2022-08-27T05:19:24.654Z,1.85
2022-08-27T05:21:52.701Z,1.30
2022-08-27T05:24:20.060Z,1.38
2022-08-27T05:26:47.072Z,1.60
2022-08-27T05:29:14.247Z,1.35
2022-08-27T05:31:41.742Z,1.00
2022-08-27T05:34:10.559Z,1.10
2022-08-27T05:36:48.621Z,1.60
2022-08-27T05:39:16.384Z,1.20
2022-08-27T05:41:43.100Z,1.42
2022-08-27T05:44:37.311Z,1.50
2022-08-27T05:46:56.507Z,1.25
2022-08-27T05:49:23.009Z,1.33
2022-08-27T05:51:49.523Z,1.35
2022-08-27T05:54:19.399Z,1.40
2022-08-27T05:56:47.697Z,1.10
2022-08-27T05:59:34.637Z,1.17
2022-08-27T06:02:02.191Z,1.50
2022-08-27T06:04:29.040Z,1.17
2022-08-27T06:06:55.517Z,1.23
2022-08-27T06:09:25.058Z,1.33
2022-08-27T06:11:54.252Z,1.20
2022-08-27T06:14:20.789Z,1.20
2022-08-27T06:16:50.765Z,1.38
2022-08-27T06:19:17.435Z,1.65
2022-08-27T06:21:44.658Z,1.35
2022-08-27T06:24:13.026Z,1.13
2022-08-27T06:26:42.290Z,1.50
2022-08-27T06:29:09.991Z,1.40
2022-08-27T06:31:37.477Z,1.35
2022-08-27T06:34:09.614Z,1.23
2022-08-27T06:36:38.338Z,1.45
2022-08-27T06:39:05.658Z,1.58
2022-08-27T06:41:33.511Z,1.10
2022-08-27T06:44:01.350Z,1.77
2022-08-27T06:46:29.354Z,1.38
2022-08-27T06:48:58.915Z,1.30
2022-08-27T06:51:29.728Z,1.30
2022-08-27T06:53:59.365Z,1.17
2022-08-27T06:56:26.762Z,1.67
2022-08-27T06:58:59.084Z,1.30
2022-08-27T07:01:34.918Z,1.50
2022-08-27T07:06:31.682Z,1.17
2022-08-27T07:08:58.664Z,1.67
2022-08-27T07:11:29.231Z,1.60
2022-08-27T07:13:56.318Z,2.33
2022-08-27T07:16:24.905Z,1.45
2022-08-27T07:18:54.082Z,1.35
2022-08-27T07:21:21.575Z,1.60
2022-08-27T07:23:49.908Z,1.52
2022-08-27T07:26:17.811Z,1.60
2022-08-27T07:28:46.648Z,1.73
2022-08-27T07:31:17.119Z,1.35
2022-08-27T07:33:50.581Z,1.60
2022-08-27T07:36:18.562Z,1.60
2022-08-27T07:38:45.347Z,1.67
2022-08-27T07:41:22.110Z,2.03
2022-08-27T07:44:07.383Z,1.48
2022-08-27T07:46:37.950Z,1.45
2022-08-27T07:49:06.213Z,1.58
2022-08-27T07:51:32.809Z,1.67
2022-08-27T07:53:59.488Z,1.38
2022-08-27T07:56:26.138Z,1.60
2022-08-27T07:58:52.567Z,1.58
2022-08-27T08:01:19.191Z,1.52
2022-08-27T08:03:45.664Z,1.67
2022-08-27T08:06:15.439Z,2.10
2022-08-27T08:08:43.893Z,1.95
2022-08-27T08:11:13.161Z,1.30
2022-08-27T08:13:39.753Z,1.90
2022-08-27T08:16:06.552Z,1.60
2022-08-27T08:18:33.494Z,1.65
2022-08-27T08:21:01.843Z,1.80
2022-08-27T08:23:29.206Z,1.17
2022-08-27T08:25:57.622Z,1.63
2022-08-27T08:28:24.293Z,1.70
2022-08-27T08:30:52.518Z,1.85
2022-08-27T08:33:19.109Z,1.73
2022-08-27T08:35:45.779Z,1.17
2022-08-27T08:38:12.432Z,2.00
2022-08-27T08:40:53.300Z,2.10
2022-08-27T08:43:40.091Z,1.75
2022-08-27T08:46:13.794Z,1.30
2022-08-27T08:48:47.135Z,1.50
2022-08-27T08:51:23.024Z,1.60
2022-08-27T08:56:31.081Z,1.50
2022-08-27T08:59:03.180Z,1.45
2022-08-27T09:01:29.917Z,1.45
2022-08-27T09:04:04.077Z,1.52
2022-08-27T09:06:41.063Z,1.50
2022-08-27T09:09:19.346Z,1.85
2022-08-27T09:11:59.366Z,1.90
2022-08-27T09:14:38.496Z,1.92
2022-08-27T09:17:07.171Z,1.80
2022-08-27T09:19:37.941Z,1.60
2022-08-27T09:22:10.221Z,1.50
2022-08-27T09:25:03.819Z,1.63
2022-08-27T09:27:31.555Z,1.58
2022-08-27T09:29:58.054Z,1.75
2022-08-27T09:32:32.167Z,1.75
2022-08-27T09:35:03.076Z,1.23
2022-08-27T09:37:34.596Z,1.25
2022-08-27T09:40:25.442Z,1.85
2022-08-27T09:42:55.994Z,1.35
2022-08-27T09:45:29.717Z,1.42
2022-08-27T09:48:10.108Z,1.48
2022-08-27T09:50:47.863Z,1.20
2022-08-27T09:53:26.759Z,1.48
2022-08-27T09:55:59.223Z,1.30
2022-08-27T09:58:34.411Z,1.40
2022-08-27T10:01:16.001Z,1.38
2022-08-27T10:03:43.531Z,1.23
2022-08-27T10:06:11.306Z,1.70
2022-08-27T10:08:47.060Z,1.50
2022-08-27T10:11:21.943Z,1.17
2022-08-27T10:14:01.324Z,1.48
2022-08-27T10:16:52.998Z,1.30
2022-08-27T10:19:49.193Z,1.33
2022-08-27T10:22:47.084Z,1.40
2022-08-27T10:25:35.376Z,1.45
2022-08-27T10:28:23.447Z,1.23
2022-08-27T10:31:17.263Z,1.45
2022-08-27T10:33:50.121Z,1.42
2022-08-27T10:36:36.895Z,1.33
2022-08-27T10:39:16.623Z,1.20
2022-08-27T10:42:00.008Z,1.40
2022-08-27T10:44:44.643Z,1.25
2022-08-27T10:47:35.959Z,1.58
2022-08-27T10:50:11.265Z,1.33
2022-08-27T10:52:51.660Z,1.23
2022-08-27T10:55:31.102Z,1.00
2022-08-27T10:58:41.375Z,1.40
2022-08-27T11:01:23.907Z,1.42
2022-08-27T11:03:56.223Z,1.20
2022-08-27T11:06:39.322Z,1.52
2022-08-27T11:09:17.306Z,1.30
2022-08-27T11:12:14.360Z,1.45
2022-08-27T11:14:54.799Z,1.52
2022-08-27T11:17:39.753Z,1.33
2022-08-27T11:20:16.613Z,1.00
2022-08-27T11:23:16.483Z,1.20
2022-08-27T11:25:51.008Z,1.17
2022-08-27T11:28:20.953Z,1.23
2022-08-27T11:30:59.388Z,1.27
2022-08-27T11:33:36.466Z,1.30
2022-08-27T11:36:32.404Z,1.33
2022-08-27T11:39:02.437Z,1.17
2022-08-27T11:41:28.837Z,1.50
2022-08-27T11:43:55.954Z,1.35
2022-08-27T11:46:26.263Z,1.58
2022-08-27T11:49:02.026Z,1.98
2022-08-27T11:51:35.301Z,1.73
2022-08-27T11:54:08.972Z,1.50
2022-08-27T11:56:42.609Z,1.48
2022-08-27T11:59:27.438Z,1.60
2022-08-27T12:01:57.239Z,1.20
2022-08-27T12:04:24.607Z,1.40
2022-08-27T12:07:07.771Z,1.20
2022-08-27T12:09:56.562Z,1.42
2022-08-27T12:12:44.947Z,1.20
2022-08-27T12:15:33.993Z,1.50
2022-08-27T12:18:20.378Z,1.35
2022-08-27T12:21:24.611Z,1.42
2022-08-27T12:24:09.443Z,1.70
2022-08-27T12:26:39.183Z,1.55
2022-08-27T12:29:42.963Z,1.75
2022-08-27T12:32:10.803Z,1.60
2022-08-27T12:35:03.866Z,1.60
2022-08-27T12:38:03.580Z,1.40
2022-08-27T12:40:41.149Z,1.30
2022-08-27T12:43:15.199Z,1.10
2022-08-27T12:45:46.894Z,1.40
2022-08-27T12:48:14.293Z,1.40
2022-08-27T12:50:40.832Z,1.20
2022-08-27T12:53:56.302Z,1.33
2022-08-27T12:56:31.573Z,1.23
2022-08-27T12:59:39.545Z,1.67
2022-08-27T13:02:40.817Z,1.05
2022-08-27T13:05:10.595Z,1.60
2022-08-27T13:07:46.182Z,1.10
2022-08-27T13:10:15.343Z,1.55
2022-08-27T13:12:43.934Z,1.48
2022-08-27T13:15:15.724Z,1.50
2022-08-27T13:17:45.616Z,1.08
2022-08-27T13:20:23.645Z,1.17
2022-08-27T13:22:51.814Z,1.45
2022-08-27T13:25:28.795Z,1.33
2022-08-27T13:28:07.817Z,1.10
2022-08-27T13:30:36.867Z,1.17
2022-08-27T13:33:06.824Z,1.30
2022-08-27T13:35:34.392Z,1.42
2022-08-27T13:38:06.225Z,0.95
2022-08-27T13:40:36.596Z,1.42
2022-08-27T13:43:13.758Z,1.30
2022-08-27T13:45:41.949Z,1.50
2022-08-27T13:48:12.293Z,1.40
2022-08-27T13:50:49.378Z,1.38
2022-08-27T13:53:39.307Z,1.52
2022-08-27T13:56:05.844Z,1.40
2022-08-27T13:58:34.997Z,1.40
2022-08-27T14:01:13.302Z,1.60
2022-08-27T14:03:55.534Z,1.45
2022-08-27T14:06:43.890Z,1.38
2022-08-27T14:09:18.295Z,1.70
2022-08-27T14:11:46.322Z,1.40
2022-08-27T14:14:13.481Z,1.60
2022-08-27T14:16:40.747Z,1.60
2022-08-27T14:19:12.891Z,1.45
2022-08-27T14:21:43.324Z,1.48
2022-08-27T14:24:09.812Z,1.60
2022-08-27T14:26:36.666Z,1.90
2022-08-27T14:29:03.165Z,1.50
2022-08-27T14:31:38.784Z,1.85
2022-08-27T14:34:06.797Z,1.83
2022-08-27T14:36:36.604Z,1.50
2022-08-27T14:39:04.304Z,1.20
2022-08-27T14:41:31.216Z,1.15
2022-08-27T14:43:59.792Z,1.27
2022-08-27T14:46:32.989Z,1.30
2022-08-27T14:49:01.544Z,1.65
2022-08-27T14:51:32.184Z,1.55
2022-08-27T14:53:59.034Z,1.50
2022-08-27T14:56:26.384Z,1.38
2022-08-27T14:58:53.688Z,1.20
2022-08-27T15:01:23.639Z,1.70
2022-08-27T15:03:51.386Z,1.42
2022-08-27T15:06:19.127Z,1.42
2022-08-27T15:08:49.502Z,1.52
2022-08-27T15:11:20.359Z,1.38
2022-08-27T15:13:47.320Z,1.55
2022-08-27T15:16:47.191Z,1.40
2022-08-27T15:19:15.382Z,1.70
2022-08-27T15:21:44.922Z,1.33
2022-08-27T15:24:19.257Z,1.55
2022-08-27T15:26:46.359Z,1.48
2022-08-27T15:29:15.830Z,1.42
2022-08-27T15:31:43.345Z,1.40
2022-08-27T15:34:11.541Z,1.77
2022-08-27T15:36:38.778Z,1.38
2022-08-27T15:39:05.924Z,1.65
2022-08-27T15:41:34.284Z,1.10
2022-08-27T15:44:05.748Z,1.48
2022-08-27T15:46:32.745Z,1.35
2022-08-27T15:48:59.628Z,1.48
2022-08-27T15:51:32.455Z,1.50
2022-08-27T15:54:00.380Z,1.80
2022-08-27T15:56:31.345Z,1.45
2022-08-27T15:59:00.421Z,1.50
2022-08-27T16:01:30.338Z,1.40
2022-08-27T16:03:59.367Z,1.75
2022-08-27T16:06:26.805Z,1.23
2022-08-27T16:08:53.746Z,1.33
2022-08-27T16:11:22.322Z,2.03
2022-08-27T16:13:50.204Z,1.60
2022-08-27T16:16:20.814Z,1.50
2022-08-27T16:18:47.497Z,1.60
2022-08-27T16:21:14.104Z,1.45
2022-08-27T16:23:40.591Z,1.20
2022-08-27T16:26:07.099Z,1.27
2022-08-27T16:28:33.547Z,1.30
2022-08-27T16:31:00.481Z,1.60
2022-08-27T16:33:27.950Z,1.40
2022-08-27T16:35:54.633Z,1.20
2022-08-27T16:38:22.484Z,1.70
2022-08-27T16:40:52.935Z,1.50
2022-08-27T16:43:25.123Z,1.30
2022-08-27T16:45:54.103Z,1.65
2022-08-27T16:48:48.010Z,1.20
2022-08-27T16:51:20.827Z,1.70
2022-08-27T16:53:49.883Z,1.13
2022-08-27T16:56:20.599Z,1.20
2022-08-27T16:58:52.871Z,1.23
2022-08-27T17:01:22.232Z,1.58
2022-08-27T17:04:08.825Z,1.25
2022-08-27T17:06:39.888Z,1.25
2022-08-27T17:09:07.295Z,1.00
2022-08-27T17:11:35.563Z,1.50
2022-08-27T17:14:03.449Z,1.10
2022-08-27T17:16:33.651Z,1.10
2022-08-27T17:19:02.070Z,1.00
2022-08-27T17:21:30.193Z,1.67
2022-08-27T17:23:59.460Z,1.48
2022-08-27T17:26:26.387Z,1.20
2022-08-27T17:28:53.393Z,1.35
2022-08-27T17:31:32.846Z,1.38
2022-08-27T17:34:00.029Z,1.50
2022-08-27T17:36:28.383Z,1.45
2022-08-27T17:38:55.240Z,1.23
2022-08-27T17:41:38.350Z,1.30
2022-08-27T17:44:10.135Z,1.10
2022-08-27T17:46:36.858Z,1.45
2022-08-27T17:49:03.672Z,1.13
2022-08-27T17:51:30.450Z,1.30
2022-08-27T17:54:01.564Z,1.33
2022-08-27T17:56:29.142Z,1.25
2022-08-27T17:58:55.980Z,1.00
2022-08-27T18:01:28.845Z,1.42
2022-08-27T18:03:57.454Z,1.40
2022-08-27T18:06:24.958Z,1.13
2022-08-27T18:08:51.446Z,1.05
2022-08-27T18:11:18.978Z,1.20
2022-08-27T18:13:52.179Z,1.20
2022-08-27T18:16:19.570Z,1.73
2022-08-27T18:18:46.354Z,1.35
2022-08-27T18:21:12.931Z,1.20
2022-08-27T18:23:40.147Z,1.30
2022-08-27T18:26:12.880Z,1.48
2022-08-27T18:28:39.609Z,1.40
2022-08-27T18:31:08.828Z,1.38
2022-08-27T18:33:36.817Z,1.67
2022-08-27T18:36:04.990Z,1.38
2022-08-27T18:38:32.229Z,1.25
2022-08-27T18:41:00.381Z,1.60
2022-08-27T18:43:35.188Z,1.40
2022-08-27T18:46:03.291Z,1.30
2022-08-27T18:48:30.119Z,1.30
2022-08-27T18:51:00.084Z,1.20
2022-08-27T18:53:30.528Z,1.10
2022-08-27T18:55:57.112Z,1.42
2022-08-27T18:58:23.959Z,1.20
2022-08-27T19:00:54.654Z,1.35
2022-08-27T19:03:27.437Z,1.40
2022-08-27T19:05:54.975Z,1.02
2022-08-27T19:08:23.776Z,1.63
2022-08-27T19:10:50.556Z,1.10
2022-08-27T19:13:17.061Z,1.20
2022-08-27T19:15:49.798Z,1.23
2022-08-27T19:18:17.737Z,1.10
2022-08-27T19:20:44.454Z,1.00
2022-08-27T19:23:11.112Z,1.10
2022-08-27T19:25:37.705Z,1.45
2022-08-27T19:28:04.237Z,1.35
2022-08-27T19:30:31.681Z,1.67
2022-08-27T19:32:58.351Z,1.35
2022-08-27T19:35:25.409Z,1.73
2022-08-27T19:37:52.771Z,1.20
2022-08-27T19:40:21.942Z,1.20
2022-08-27T19:42:49.436Z,1.17
2022-08-27T19:45:23.294Z,1.30
2022-08-27T19:47:52.523Z,1.60
2022-08-27T19:50:19.514Z,1.60
2022-08-27T19:52:47.420Z,1.40
2022-08-27T19:55:14.824Z,1.38
2022-08-27T19:57:42.900Z,1.75
2022-08-27T20:00:11.876Z,1.45
2022-08-27T20:02:38.790Z,1.90
2022-08-27T20:05:17.805Z,2.83
2022-08-27T20:07:45.582Z,2.15
2022-08-27T20:10:12.059Z,2.35
2022-08-27T20:12:38.635Z,2.20
2022-08-27T20:15:06.387Z,2.05
2022-08-27T20:17:34.794Z,2.38
2022-08-27T20:20:01.289Z,2.85
2022-08-27T20:22:28.526Z,2.58
2022-08-27T20:24:55.061Z,2.58
2022-08-27T20:27:21.841Z,2.67
2022-08-27T20:29:48.787Z,2.53
2022-08-27T20:32:15.347Z,2.45
2022-08-27T20:34:42.060Z,2.75
2022-08-27T20:37:08.633Z,2.78
2022-08-27T20:39:35.282Z,2.60
2022-08-27T20:42:01.938Z,2.53
2022-08-27T20:44:28.532Z,2.72
2022-08-27T20:46:57.966Z,2.70
2022-08-27T20:49:24.479Z,2.40
2022-08-27T20:52:04.049Z,3.10
2022-08-27T20:54:33.855Z,2.70
2022-08-27T20:57:00.954Z,3.00
2022-08-27T20:59:45.909Z,2.60
2022-08-27T21:02:13.886Z,2.50
2022-08-27T21:04:48.335Z,3.10
2022-08-27T21:07:16.197Z,2.92
2022-08-27T21:09:56.931Z,3.17
2022-08-27T21:12:28.035Z,3.03
2022-08-27T21:14:56.451Z,3.53
2022-08-27T21:17:28.456Z,3.60
2022-08-27T21:19:55.980Z,3.25
2022-08-27T21:22:23.319Z,3.33
2022-08-27T21:24:50.492Z,3.30
2022-08-27T21:27:18.391Z,3.83
2022-08-27T21:29:45.230Z,3.22
2022-08-27T21:32:12.208Z,3.47
2022-08-27T21:34:38.677Z,3.20
2022-08-27T21:37:05.362Z,3.28
2022-08-27T21:39:34.162Z,3.53
2022-08-27T21:42:01.548Z,3.67
2022-08-27T21:44:29.023Z,3.50
2022-08-27T21:46:55.622Z,3.53
2022-08-27T21:49:22.180Z,4.03
2022-08-27T21:51:48.642Z,3.88
2022-08-27T21:54:15.338Z,3.80
2022-08-27T21:56:42.765Z,3.95
2022-08-27T21:59:09.499Z,3.70
2022-08-27T22:01:36.288Z,4.07
2022-08-27T22:04:03.098Z,3.47
2022-08-27T22:06:29.905Z,3.80
2022-08-27T22:08:56.435Z,3.80
2022-08-27T22:11:24.459Z,3.17
2022-08-27T22:13:51.557Z,3.70
2022-08-27T22:16:18.194Z,3.60
2022-08-27T22:18:44.805Z,3.83
2022-08-27T22:21:11.416Z,4.00
2022-08-27T22:23:37.852Z,3.67
2022-08-27T22:26:04.717Z,3.83
2022-08-27T22:28:31.165Z,4.13
2022-08-27T22:30:57.717Z,3.83
2022-08-27T22:33:25.586Z,3.65
2022-08-27T22:35:52.063Z,3.85
2022-08-27T22:38:18.527Z,4.22
2022-08-27T22:40:45.174Z,3.63
2022-08-27T22:43:13.003Z,3.75
2022-08-27T22:45:39.477Z,4.55
2022-08-27T22:48:05.994Z,4.05
2022-08-27T22:50:32.433Z,3.72
2022-08-27T22:52:59.000Z,4.65
2022-08-27T22:55:25.646Z,3.67
2022-08-27T22:57:54.843Z,4.43
2022-08-27T23:00:27.842Z,3.97
2022-08-27T23:02:55.234Z,3.85
2022-08-27T23:05:22.168Z,3.92
2022-08-27T23:07:49.067Z,4.18
2022-08-27T23:10:18.330Z,4.20
2022-08-27T23:12:46.589Z,3.75
2022-08-27T23:15:15.361Z,4.13
2022-08-27T23:17:41.834Z,3.83
2022-08-27T23:20:09.314Z,3.78
2022-08-27T23:22:37.174Z,3.70
2022-08-27T23:25:24.035Z,3.88
2022-08-27T23:27:50.486Z,3.42
2022-08-27T23:30:18.325Z,4.25
2022-08-27T23:32:48.265Z,4.03
2022-08-27T23:35:21.830Z,3.53
2022-08-27T23:37:49.974Z,3.83
2022-08-27T23:40:17.007Z,3.90
2022-08-27T23:42:44.489Z,4.03
2022-08-27T23:45:15.077Z,3.90
2022-08-27T23:47:41.992Z,3.65
2022-08-27T23:50:09.723Z,3.92
2022-08-27T23:52:36.489Z,3.83
2022-08-27T23:55:03.842Z,3.42
2022-08-27T23:57:30.291Z,3.60
2022-08-27T23:59:57.309Z,3.58
